Terminal Aerodrome Forecast
Issued by NWS

Home | Current Version | Previous Version | Text Only | Print | Product List | Glossary On
Versions: 1 2 3 4 5 6 7 8 9 10 11 12 13 14 15 16 17
000
FTUS44 KLZK 241720
TAFLIT
TAF
KLIT 241720Z 2418/2518 22006KT P6SM SCT050 BKN250
     FM242100 16005KT P6SM VCTS BKN050CB BKN120
     FM250100 VRB03KT P6SM SCT120 BKN250
     FM251400 33005KT P6SM SCT030 OVC060 PROB30 2514/2518 4SM TSRA
      BR BKN030CB=

USA.gov is the U.S. government's official web portal to all federal, state and local government web resources and services.